createdAt,value
2022-09-15T00:00:14.296Z,99.90
2022-09-15T00:02:40.747Z,99.90
2022-09-15T00:05:07.212Z,99.90
2022-09-15T00:07:33.595Z,99.90
2022-09-15T00:10:00.057Z,99.90
2022-09-15T00:12:26.426Z,99.90
2022-09-15T00:14:52.830Z,99.90
2022-09-15T00:17:19.225Z,99.90
2022-09-15T00:19:45.611Z,99.90
2022-09-15T00:22:12.027Z,99.90
2022-09-15T00:24:38.432Z,99.90
2022-09-15T00:27:04.811Z,99.90
2022-09-15T00:29:31.234Z,99.90
2022-09-15T00:31:57.616Z,99.90
2022-09-15T00:34:24.011Z,99.90
2022-09-15T00:36:50.390Z,99.90
2022-09-15T00:39:16.792Z,99.90
2022-09-15T00:41:43.173Z,99.90
2022-09-15T00:44:09.617Z,99.90
2022-09-15T00:46:36.016Z,99.90
2022-09-15T00:49:02.400Z,99.90
2022-09-15T00:51:28.803Z,99.90
2022-09-15T00:53:55.209Z,99.90
2022-09-15T00:56:21.581Z,99.90
2022-09-15T00:58:47.974Z,99.90
2022-09-15T01:01:14.426Z,99.90
2022-09-15T01:03:40.877Z,99.90
2022-09-15T01:06:07.286Z,99.90
2022-09-15T01:08:33.715Z,99.90
2022-09-15T01:11:01.215Z,99.90
2022-09-15T01:13:27.611Z,99.90
2022-09-15T01:15:54.022Z,99.90
2022-09-15T01:18:20.394Z,99.90
2022-09-15T01:20:46.781Z,99.90
2022-09-15T01:23:13.173Z,99.90
2022-09-15T01:25:39.555Z,99.90
2022-09-15T01:28:05.925Z,99.90
2022-09-15T01:30:32.377Z,99.90
2022-09-15T01:32:58.750Z,99.90
2022-09-15T01:35:25.151Z,99.90
2022-09-15T01:37:51.539Z,99.90
2022-09-15T01:40:18.003Z,99.90
2022-09-15T01:42:44.439Z,99.90
2022-09-15T01:45:10.842Z,99.90
2022-09-15T01:47:37.243Z,99.90
2022-09-15T01:50:03.631Z,99.90
2022-09-15T01:52:30.022Z,99.90
2022-09-15T01:54:56.412Z,99.90
2022-09-15T01:57:22.866Z,99.90
2022-09-15T01:59:49.255Z,99.90
2022-09-15T02:02:15.657Z,99.90
2022-09-15T02:04:42.065Z,99.90
2022-09-15T02:07:08.457Z,99.90
2022-09-15T02:09:34.869Z,99.90
2022-09-15T02:12:01.271Z,99.90
2022-09-15T02:14:27.663Z,99.90
2022-09-15T02:16:54.166Z,99.90
2022-09-15T02:19:20.656Z,99.90
2022-09-15T02:21:47.039Z,99.90
2022-09-15T02:24:13.439Z,99.90
2022-09-15T02:26:39.819Z,99.90
2022-09-15T02:29:06.243Z,99.90
2022-09-15T02:31:32.758Z,99.90
2022-09-15T02:33:59.251Z,99.90
2022-09-15T02:36:25.639Z,99.90
2022-09-15T02:38:52.128Z,99.90
2022-09-15T02:41:18.628Z,99.90
2022-09-15T02:43:45.062Z,99.90
2022-09-15T02:46:11.494Z,99.90
2022-09-15T02:48:37.913Z,99.90
2022-09-15T02:51:04.337Z,99.90
2022-09-15T02:53:30.742Z,99.90
2022-09-15T02:55:57.143Z,99.90
2022-09-15T02:58:23.564Z,99.90
2022-09-15T03:00:50.009Z,99.90
2022-09-15T03:03:16.412Z,99.90
2022-09-15T03:05:42.848Z,99.90
2022-09-15T03:08:09.265Z,99.90
2022-09-15T03:10:35.638Z,99.90
2022-09-15T03:13:02.152Z,99.90
2022-09-15T03:15:28.637Z,99.90
2022-09-15T03:17:55.032Z,99.90
2022-09-15T03:20:21.430Z,99.90
2022-09-15T03:22:47.797Z,99.90
2022-09-15T03:25:14.194Z,99.90
2022-09-15T03:27:40.586Z,99.90
2022-09-15T03:30:06.952Z,99.90
2022-09-15T03:32:33.388Z,99.90
2022-09-15T03:34:59.790Z,99.90
2022-09-15T03:37:26.202Z,99.90
2022-09-15T03:39:52.699Z,99.90
2022-09-15T03:42:19.131Z,99.90
2022-09-15T03:44:45.513Z,99.90
2022-09-15T03:47:11.925Z,99.90
2022-09-15T03:49:38.319Z,99.90
2022-09-15T03:52:04.718Z,99.90
2022-09-15T03:54:31.112Z,99.90
2022-09-15T03:56:57.524Z,99.90
2022-09-15T03:59:23.913Z,99.90
2022-09-15T04:01:50.341Z,99.90
2022-09-15T04:04:16.773Z,99.90
2022-09-15T04:06:43.176Z,99.90
2022-09-15T04:09:09.549Z,99.90
2022-09-15T04:11:35.964Z,99.90
2022-09-15T04:14:02.357Z,99.90
2022-09-15T04:16:28.838Z,99.90
2022-09-15T04:18:55.309Z,99.90
2022-09-15T04:21:21.713Z,99.90
2022-09-15T04:23:48.085Z,99.90
2022-09-15T04:26:14.518Z,99.90
2022-09-15T04:28:40.899Z,99.90
2022-09-15T04:31:07.387Z,99.90
2022-09-15T04:33:33.948Z,99.90
2022-09-15T04:36:00.329Z,99.90
2022-09-15T04:38:26.744Z,99.90
2022-09-15T04:40:53.126Z,99.90
2022-09-15T04:43:19.527Z,99.90
2022-09-15T04:45:45.927Z,99.90
2022-09-15T04:48:12.351Z,99.90
2022-09-15T04:50:38.734Z,99.90
2022-09-15T04:53:05.147Z,99.90
2022-09-15T04:55:31.558Z,99.90
2022-09-15T04:57:57.950Z,99.90
2022-09-15T05:00:24.353Z,99.90
2022-09-15T05:02:50.753Z,99.90
2022-09-15T05:05:17.187Z,99.90
2022-09-15T05:07:43.625Z,99.90
2022-09-15T05:10:10.031Z,99.90
2022-09-15T05:12:36.424Z,99.90
2022-09-15T05:15:02.839Z,99.90
2022-09-15T05:17:32.334Z,99.90
2022-09-15T05:19:58.802Z,99.90
2022-09-15T05:22:25.316Z,99.90
2022-09-15T05:24:51.693Z,99.90
2022-09-15T05:27:18.097Z,99.90
2022-09-15T05:29:44.513Z,99.90
2022-09-15T05:32:10.927Z,99.90
2022-09-15T05:34:37.326Z,99.90
2022-09-15T05:37:03.754Z,99.90
2022-09-15T05:39:30.138Z,99.90
2022-09-15T05:41:56.538Z,99.90
2022-09-15T05:44:22.939Z,99.90
2022-09-15T05:46:49.391Z,99.90
2022-09-15T05:49:15.873Z,99.90
2022-09-15T05:51:42.323Z,99.90
2022-09-15T05:54:08.717Z,99.90
2022-09-15T05:56:35.146Z,99.90
2022-09-15T05:59:01.678Z,99.90
2022-09-15T06:01:28.193Z,99.90
2022-09-15T06:03:54.579Z,99.90
2022-09-15T06:06:20.954Z,99.90
2022-09-15T06:08:48.404Z,99.90
2022-09-15T06:11:15.094Z,99.90
2022-09-15T06:13:41.509Z,99.90
2022-09-15T06:16:07.976Z,99.90
2022-09-15T06:18:34.398Z,99.90
2022-09-15T06:21:00.798Z,99.90
2022-09-15T06:23:27.199Z,99.90
2022-09-15T06:25:53.596Z,99.90
2022-09-15T06:28:20.054Z,99.90
2022-09-15T06:30:46.456Z,99.90
2022-09-15T06:33:12.835Z,99.90
2022-09-15T06:35:39.309Z,99.90
2022-09-15T06:38:05.750Z,99.90
2022-09-15T06:40:32.232Z,99.90
2022-09-15T06:42:58.657Z,99.90
2022-09-15T06:45:25.032Z,99.90
2022-09-15T06:48:07.366Z,99.90
2022-09-15T06:50:37.853Z,99.90
2022-09-15T06:53:04.229Z,99.90
2022-09-15T06:55:30.617Z,99.90
2022-09-15T06:57:57.020Z,99.90
2022-09-15T07:00:23.423Z,99.90
2022-09-15T07:02:49.912Z,99.90
2022-09-15T07:05:16.348Z,99.90
2022-09-15T07:07:42.745Z,99.90
2022-09-15T07:10:09.136Z,99.90
2022-09-15T07:12:35.537Z,99.90
2022-09-15T07:15:01.947Z,99.90
2022-09-15T07:17:28.826Z,99.90
2022-09-15T07:19:55.225Z,99.90
2022-09-15T07:22:21.611Z,99.90
2022-09-15T07:24:48.015Z,99.90
2022-09-15T07:27:14.414Z,99.90
2022-09-15T07:29:40.811Z,99.90
2022-09-15T07:32:07.259Z,99.90
2022-09-15T07:34:33.662Z,99.90
2022-09-15T07:37:00.070Z,99.90
2022-09-15T07:39:26.447Z,99.90
2022-09-15T07:41:52.840Z,99.90
2022-09-15T07:44:19.240Z,99.90
2022-09-15T07:46:45.630Z,99.90
2022-09-15T07:49:12.039Z,99.90
2022-09-15T07:51:38.417Z,99.90
2022-09-15T07:54:04.811Z,99.90
2022-09-15T07:56:31.202Z,99.90
2022-09-15T07:58:57.593Z,99.90
2022-09-15T08:01:23.986Z,99.90
2022-09-15T08:03:50.430Z,99.90
2022-09-15T08:06:16.817Z,99.90
2022-09-15T08:08:43.214Z,99.90
2022-09-15T08:11:09.592Z,99.90
2022-09-15T08:13:36.002Z,99.90
2022-09-15T08:16:02.434Z,99.90
2022-09-15T08:18:28.858Z,99.90
2022-09-15T08:20:55.264Z,99.90
2022-09-15T08:23:21.737Z,99.90
2022-09-15T08:25:48.146Z,99.90
2022-09-15T08:28:14.527Z,99.90
2022-09-15T08:30:40.939Z,99.90
2022-09-15T08:33:07.315Z,99.90
2022-09-15T08:35:33.716Z,99.90
2022-09-15T08:38:00.113Z,99.90
2022-09-15T08:40:26.592Z,99.90
2022-09-15T08:42:53.035Z,99.90
2022-09-15T08:45:19.420Z,99.60
2022-09-15T08:47:45.845Z,99.60
2022-09-15T08:50:12.240Z,97.80
2022-09-15T08:52:38.643Z,97.20
2022-09-15T08:55:05.023Z,97.50
2022-09-15T08:57:31.438Z,96.20
2022-09-15T08:59:57.832Z,95.80
2022-09-15T09:02:24.305Z,95.30
2022-09-15T09:07:32.610Z,93.70
2022-09-15T09:10:03.232Z,92.80
2022-09-15T09:12:29.712Z,93.20
2022-09-15T09:14:56.092Z,92.70
2022-09-15T09:17:22.520Z,92.20
2022-09-15T09:19:48.981Z,91.70
2022-09-15T09:22:15.493Z,90.70
2022-09-15T09:24:41.914Z,90.70
2022-09-15T09:27:08.527Z,91.50
2022-09-15T09:29:34.929Z,91.20
2022-09-15T09:32:01.331Z,92.00
2022-09-15T09:34:27.930Z,90.90
2022-09-15T09:36:54.402Z,90.50
2022-09-15T09:39:20.823Z,90.50
2022-09-15T09:41:47.261Z,90.20
2022-09-15T09:44:13.648Z,90.10
2022-09-15T09:46:40.159Z,90.00
2022-09-15T09:49:06.602Z,89.90
2022-09-15T09:51:33.002Z,89.20
2022-09-15T09:53:59.412Z,89.90
2022-09-15T09:56:25.806Z,90.00
2022-09-15T09:58:52.265Z,89.90
2022-09-15T10:01:18.773Z,88.80
2022-09-15T10:03:45.330Z,88.20
2022-09-15T10:06:11.812Z,88.50
2022-09-15T10:08:38.232Z,88.20
2022-09-15T10:11:04.631Z,87.10
2022-09-15T10:13:31.122Z,86.80
2022-09-15T10:15:57.537Z,84.00
2022-09-15T10:18:24.115Z,84.70
2022-09-15T10:20:50.512Z,83.00
2022-09-15T10:23:16.919Z,82.00
2022-09-15T10:25:59.104Z,80.80
2022-09-15T10:28:26.506Z,78.90
2022-09-15T10:30:52.910Z,78.70
2022-09-15T10:33:19.329Z,77.10
2022-09-15T10:35:45.755Z,76.90
2022-09-15T10:38:12.180Z,76.00
2022-09-15T10:40:38.576Z,75.40
2022-09-15T10:43:04.987Z,75.80
2022-09-15T10:45:31.423Z,75.60
2022-09-15T10:47:57.835Z,76.50
2022-09-15T10:50:24.317Z,77.70
2022-09-15T10:52:50.754Z,78.10
2022-09-15T10:55:22.079Z,78.10
2022-09-15T10:57:59.163Z,76.10
2022-09-15T11:00:25.585Z,75.20
2022-09-15T11:02:52.022Z,74.80
2022-09-15T11:05:21.982Z,74.90
2022-09-15T11:07:49.244Z,74.50
2022-09-15T11:10:15.642Z,75.30
2022-09-15T11:12:42.117Z,74.90
2022-09-15T11:15:08.585Z,74.70
2022-09-15T11:17:35.008Z,74.70
2022-09-15T11:20:01.416Z,74.80
2022-09-15T11:22:27.805Z,74.00
2022-09-15T11:24:54.221Z,73.20
2022-09-15T11:27:20.612Z,72.80
2022-09-15T11:29:47.011Z,72.90
2022-09-15T11:32:13.535Z,71.80
2022-09-15T11:34:39.923Z,70.50
2022-09-15T11:37:06.322Z,71.10
2022-09-15T11:39:32.710Z,71.20
2022-09-15T11:41:59.156Z,71.00
2022-09-15T11:44:25.580Z,71.00
2022-09-15T11:46:52.115Z,72.30
2022-09-15T11:49:18.519Z,72.80
2022-09-15T11:51:44.902Z,72.60
2022-09-15T11:54:11.342Z,73.90
2022-09-15T11:56:37.823Z,73.60
2022-09-15T11:59:04.235Z,74.20
2022-09-15T12:01:30.671Z,74.40
2022-09-15T12:03:57.085Z,75.60
2022-09-15T12:06:23.502Z,75.80
2022-09-15T12:08:49.878Z,77.00
2022-09-15T12:11:16.344Z,77.90
2022-09-15T12:13:42.751Z,77.60
2022-09-15T12:16:09.200Z,76.80
2022-09-15T12:18:39.369Z,75.80
2022-09-15T12:21:07.295Z,75.40
2022-09-15T12:23:33.691Z,74.20
2022-09-15T12:26:00.133Z,74.70
2022-09-15T12:28:26.681Z,74.70
2022-09-15T12:30:53.175Z,75.20
2022-09-15T12:33:19.599Z,75.10
2022-09-15T12:35:49.241Z,76.50
2022-09-15T12:38:15.846Z,77.30
2022-09-15T12:40:42.457Z,78.50
2022-09-15T12:43:08.981Z,78.20
2022-09-15T12:45:35.399Z,79.30
2022-09-15T12:48:02.071Z,80.10
2022-09-15T12:50:28.627Z,79.90
2022-09-15T12:52:55.494Z,78.90
2022-09-15T12:55:22.051Z,78.00
2022-09-15T12:57:48.490Z,74.50
2022-09-15T13:00:14.902Z,71.90
2022-09-15T13:02:41.385Z,71.70
2022-09-15T13:05:07.866Z,71.40
2022-09-15T13:07:34.254Z,71.60
2022-09-15T13:10:00.667Z,70.10
2022-09-15T13:12:27.165Z,70.10
2022-09-15T13:14:53.601Z,69.20
2022-09-15T13:17:19.981Z,70.40
2022-09-15T13:19:46.387Z,72.40
2022-09-15T13:22:12.801Z,71.20
2022-09-15T13:24:39.197Z,70.60
2022-09-15T13:27:05.606Z,70.60
2022-09-15T13:29:31.989Z,70.70
2022-09-15T13:31:58.373Z,70.30
2022-09-15T13:39:57.639Z,69.50
2022-09-15T13:42:24.078Z,69.70
2022-09-15T13:44:50.467Z,68.20
2022-09-15T13:47:16.886Z,67.30
2022-09-15T13:49:43.293Z,65.70
2022-09-15T13:52:09.665Z,63.20
2022-09-15T13:54:36.055Z,63.50
2022-09-15T13:57:02.587Z,65.20
2022-09-15T13:59:28.964Z,67.90
2022-09-15T14:01:55.436Z,70.30
2022-09-15T14:04:21.888Z,71.90
2022-09-15T14:06:48.282Z,73.70
2022-09-15T14:09:15.001Z,74.20
2022-09-15T14:11:41.547Z,74.40
2022-09-15T14:14:07.941Z,74.40
2022-09-15T14:16:34.376Z,75.00
2022-09-15T14:19:00.805Z,76.30
2022-09-15T14:21:27.185Z,77.40
2022-09-15T14:23:53.665Z,78.30
2022-09-15T14:26:20.069Z,79.40
2022-09-15T14:28:46.457Z,87.00
2022-09-15T14:31:12.850Z,92.60
2022-09-15T14:33:39.258Z,95.60
2022-09-15T14:36:05.705Z,98.90
2022-09-15T14:38:32.163Z,99.90
2022-09-15T14:40:58.556Z,99.90
2022-09-15T14:43:24.971Z,99.90
2022-09-15T14:45:53.925Z,99.90
2022-09-15T14:48:24.867Z,99.90
2022-09-15T14:50:51.270Z,99.90
2022-09-15T14:53:17.647Z,99.90
2022-09-15T14:55:44.058Z,99.90
2022-09-15T14:58:10.442Z,99.90
2022-09-15T15:00:36.916Z,99.90
2022-09-15T15:03:03.309Z,99.90
2022-09-15T15:05:29.786Z,99.90
2022-09-15T15:07:56.190Z,99.90
2022-09-15T15:10:22.597Z,99.90
2022-09-15T15:12:48.979Z,99.90
2022-09-15T15:15:15.370Z,99.90
2022-09-15T15:17:41.751Z,99.90
2022-09-15T15:20:08.154Z,99.90
2022-09-15T15:22:34.541Z,99.90
2022-09-15T15:25:00.931Z,99.90
2022-09-15T15:27:27.379Z,99.90
2022-09-15T15:29:53.750Z,99.90
2022-09-15T15:32:20.174Z,99.90
2022-09-15T15:34:46.578Z,99.90
2022-09-15T15:37:13.102Z,99.90
2022-09-15T15:39:39.524Z,99.90
2022-09-15T15:42:05.950Z,99.90
2022-09-15T15:44:32.525Z,99.90
2022-09-15T15:46:58.951Z,99.90
2022-09-15T15:49:25.336Z,99.90
2022-09-15T15:51:51.722Z,99.90
2022-09-15T15:54:18.105Z,99.90
2022-09-15T15:56:44.498Z,99.90
2022-09-15T15:59:10.911Z,99.90
2022-09-15T16:01:37.320Z,99.90
2022-09-15T16:04:03.727Z,99.90
2022-09-15T16:06:30.146Z,99.90
2022-09-15T16:08:56.555Z,99.90
2022-09-15T16:14:07.422Z,99.90
2022-09-15T16:16:33.895Z,99.90
2022-09-15T16:19:00.323Z,99.90
2022-09-15T16:21:26.784Z,99.90
2022-09-15T16:23:53.187Z,99.90
2022-09-15T16:26:19.555Z,99.90
2022-09-15T16:28:46.101Z,99.90
2022-09-15T16:31:12.803Z,99.90
2022-09-15T16:33:39.266Z,99.90
2022-09-15T16:36:05.646Z,99.90
2022-09-15T16:38:32.053Z,99.90
2022-09-15T16:40:58.460Z,99.90
2022-09-15T16:43:24.846Z,99.90
2022-09-15T16:45:51.249Z,99.90
2022-09-15T16:48:17.657Z,99.90
2022-09-15T16:51:25.252Z,99.90
2022-09-15T16:53:30.416Z,99.90
2022-09-15T16:55:56.829Z,99.90
2022-09-15T16:58:23.223Z,99.90
2022-09-15T17:00:49.695Z,99.90
2022-09-15T17:03:16.101Z,99.90
2022-09-15T17:05:46.404Z,99.90
2022-09-15T17:08:14.751Z,99.90
2022-09-15T17:10:41.153Z,99.90
2022-09-15T17:13:07.558Z,99.90
2022-09-15T17:15:33.969Z,99.90
2022-09-15T17:18:00.375Z,99.90
2022-09-15T17:20:26.806Z,99.90
2022-09-15T17:22:53.206Z,99.90
2022-09-15T17:25:19.657Z,99.90
2022-09-15T17:27:46.037Z,99.90
2022-09-15T17:30:12.439Z,99.90
2022-09-15T17:32:38.819Z,99.90
2022-09-15T17:35:05.208Z,99.90
2022-09-15T17:37:31.621Z,99.90
2022-09-15T17:39:59.068Z,99.90
2022-09-15T17:42:25.667Z,99.90
2022-09-15T17:44:52.082Z,99.90
2022-09-15T17:47:18.469Z,99.90
2022-09-15T17:49:44.883Z,99.90
2022-09-15T17:52:11.346Z,99.90
2022-09-15T17:54:37.749Z,99.90
2022-09-15T17:57:04.400Z,99.90
2022-09-15T17:59:30.860Z,99.90
2022-09-15T18:01:57.295Z,99.90
2022-09-15T18:04:23.718Z,99.90
2022-09-15T18:06:50.124Z,99.90
2022-09-15T18:09:16.529Z,99.90
2022-09-15T18:11:42.960Z,99.90
2022-09-15T18:14:09.362Z,99.90
2022-09-15T18:16:35.768Z,99.90
2022-09-15T18:19:02.146Z,99.90
2022-09-15T18:21:28.600Z,99.90
2022-09-15T18:23:55.052Z,99.90
2022-09-15T18:26:25.399Z,99.90
2022-09-15T18:28:52.924Z,99.90
2022-09-15T18:31:19.369Z,99.90
2022-09-15T18:33:45.766Z,99.90
2022-09-15T18:36:12.172Z,99.90
2022-09-15T18:38:38.564Z,99.90
2022-09-15T18:41:04.987Z,99.90
2022-09-15T18:43:31.408Z,99.90
2022-09-15T18:45:57.824Z,99.90
2022-09-15T18:48:24.254Z,99.90
2022-09-15T18:50:50.630Z,99.90
2022-09-15T18:53:17.121Z,99.90
2022-09-15T18:55:43.533Z,99.90
2022-09-15T18:58:09.919Z,99.90
2022-09-15T19:00:36.298Z,99.90
2022-09-15T19:03:02.719Z,99.90
2022-09-15T19:05:29.098Z,99.90
2022-09-15T19:07:55.502Z,99.90
2022-09-15T19:10:21.881Z,99.90
2022-09-15T19:12:48.267Z,99.90
2022-09-15T19:15:14.660Z,99.90
2022-09-15T19:17:41.048Z,99.90
2022-09-15T19:20:07.473Z,99.90
2022-09-15T19:22:33.847Z,99.90
2022-09-15T19:25:00.251Z,99.90
2022-09-15T19:27:26.662Z,99.90
2022-09-15T19:29:53.154Z,99.90
2022-09-15T19:32:19.586Z,99.90
2022-09-15T19:34:45.968Z,99.90
2022-09-15T19:37:16.524Z,99.90
2022-09-15T19:39:44.959Z,99.90
2022-09-15T19:42:11.396Z,99.90
2022-09-15T19:44:37.813Z,99.90
2022-09-15T19:47:04.184Z,99.90
2022-09-15T19:49:30.589Z,99.90
2022-09-15T19:51:56.973Z,99.90
2022-09-15T19:54:23.363Z,99.90
2022-09-15T19:56:49.762Z,99.90
2022-09-15T19:59:16.144Z,99.90
2022-09-15T20:01:42.553Z,99.90
2022-09-15T20:04:08.957Z,99.90
2022-09-15T20:06:35.343Z,99.90
2022-09-15T20:09:01.737Z,99.90
2022-09-15T20:11:28.144Z,99.90
2022-09-15T20:13:54.619Z,99.90
2022-09-15T20:16:21.092Z,99.90
2022-09-15T20:18:47.489Z,99.90
2022-09-15T20:21:26.923Z,99.90
2022-09-15T20:24:00.264Z,99.90
2022-09-15T20:26:26.646Z,99.90
2022-09-15T20:28:53.123Z,99.90
2022-09-15T20:31:19.545Z,99.90
2022-09-15T20:33:45.930Z,99.90
2022-09-15T20:36:12.312Z,99.90
2022-09-15T20:38:38.707Z,99.90
2022-09-15T20:41:05.138Z,99.90
2022-09-15T20:43:31.507Z,99.90
2022-09-15T20:45:57.944Z,99.90
2022-09-15T20:48:24.403Z,99.90
2022-09-15T20:50:50.779Z,99.90
2022-09-15T20:53:17.165Z,99.90
2022-09-15T20:55:43.562Z,99.90
2022-09-15T20:58:09.973Z,99.90
2022-09-15T21:00:36.354Z,99.90
2022-09-15T21:03:02.767Z,99.90
2022-09-15T21:08:04.556Z,99.90
2022-09-15T21:10:30.987Z,99.90
2022-09-15T21:12:57.439Z,99.90
2022-09-15T21:15:23.921Z,99.90
2022-09-15T21:17:50.451Z,99.90
2022-09-15T21:20:16.928Z,99.90
2022-09-15T21:22:43.408Z,99.90
2022-09-15T21:25:09.862Z,99.90
2022-09-15T21:27:36.415Z,99.90
2022-09-15T21:30:02.877Z,99.90
2022-09-15T21:32:29.292Z,99.90
2022-09-15T21:34:55.724Z,99.90
2022-09-15T21:37:22.124Z,99.90
2022-09-15T21:39:48.711Z,99.90
2022-09-15T21:42:15.127Z,99.90
2022-09-15T21:44:41.568Z,99.90
2022-09-15T21:47:08.041Z,99.90
2022-09-15T21:49:34.582Z,99.90
2022-09-15T21:52:01.037Z,99.90
2022-09-15T21:54:27.455Z,99.90
2022-09-15T21:56:53.963Z,99.90
2022-09-15T21:59:20.414Z,99.90
2022-09-15T22:01:46.861Z,99.90
2022-09-15T22:04:13.355Z,99.90
2022-09-15T22:06:39.762Z,99.90
2022-09-15T22:09:06.194Z,99.90
2022-09-15T22:11:32.652Z,99.90
2022-09-15T22:13:59.063Z,99.90
2022-09-15T22:16:25.598Z,99.90
2022-09-15T22:18:52.022Z,99.90
2022-09-15T22:21:18.437Z,99.90
2022-09-15T22:23:44.842Z,99.90
2022-09-15T22:26:11.281Z,99.90
2022-09-15T22:28:37.750Z,99.90
2022-09-15T22:31:04.223Z,99.90
2022-09-15T22:33:30.716Z,99.90
2022-09-15T22:35:57.174Z,99.90
2022-09-15T22:38:23.670Z,99.90
2022-09-15T22:40:50.112Z,99.90
2022-09-15T22:43:16.552Z,99.90
2022-09-15T22:45:43.022Z,99.90
2022-09-15T22:48:09.524Z,99.90
2022-09-15T22:50:35.952Z,99.90
2022-09-15T22:53:02.436Z,99.90
2022-09-15T22:55:28.939Z,99.90
2022-09-15T22:57:55.472Z,99.90
2022-09-15T23:00:21.910Z,99.90
2022-09-15T23:02:48.391Z,99.90
2022-09-15T23:05:14.797Z,99.90
2022-09-15T23:07:41.213Z,99.90
2022-09-15T23:10:07.658Z,99.90
2022-09-15T23:12:34.082Z,99.90
2022-09-15T23:15:00.525Z,99.90
2022-09-15T23:17:27.060Z,99.90
2022-09-15T23:19:53.517Z,99.90
2022-09-15T23:22:19.967Z,99.90
2022-09-15T23:24:46.414Z,99.90
2022-09-15T23:27:12.874Z,99.90
2022-09-15T23:29:39.274Z,99.90
2022-09-15T23:32:05.728Z,99.90
2022-09-15T23:34:32.189Z,99.90
2022-09-15T23:36:58.632Z,99.90
2022-09-15T23:39:25.127Z,99.90
2022-09-15T23:41:51.582Z,99.90
2022-09-15T23:44:17.969Z,99.90
2022-09-15T23:46:44.420Z,99.90
2022-09-15T23:49:12.619Z,99.90
2022-09-15T23:51:40.872Z,99.90
2022-09-15T23:54:07.365Z,99.90
2022-09-15T23:56:33.830Z,99.90
2022-09-15T23:59:00.258Z,99.90
